Time;durP1;ratioP1;P1;durP2;ratioP2;P2;SDS_P1;SDS_P2;PMS_P1;PMS_P2;Temp;Humidity;BMP_temperature;BMP_pressure;BME280_temperature;BME280_humidity;BME280_pressure;Samples;Min_cycle;Max_cycle;Signal;HPM_P1;HPM_P2
2021/03/07 00:01:20;;;;;;;4.73;4.03;;;;;;;8.80;49.70;102358.00;5059955;28;20174;-76
2021/03/07 00:03:45;;;;;;;5.03;4.00;;;;;;;5.36;56.02;102364.19;5060671;28;20402;-78
2021/03/07 00:06:10;;;;;;;4.70;4.20;;;;;;;5.61;57.71;102365.59;5059958;28;20193;-79
2021/03/07 00:08:37;;;;;;;5.83;4.37;;;;;;;5.42;56.90;102360.19;5059348;28;20258;-78
2021/03/07 00:11:02;;;;;;;5.50;4.00;;;;;;;5.22;57.43;102365.09;5059455;28;20173;-77
2021/03/07 00:13:27;;;;;;;6.43;4.40;;;;;;;4.85;58.44;102357.78;5058965;28;20498;-78
2021/03/07 00:15:52;;;;;;;6.23;4.03;;;;;;;5.31;57.51;102352.69;5058330;28;20188;-77
2021/03/07 00:18:18;;;;;;;4.93;4.20;;;;;;;5.55;58.53;102349.72;5059428;28;20175;-79
2021/03/07 00:20:43;;;;;;;5.43;4.90;;;;;;;5.77;55.89;102348.34;5059090;28;20201;-80
2021/03/07 00:23:08;;;;;;;5.57;3.90;;;;;;;5.47;56.75;102346.72;5058909;28;20201;-78
2021/03/07 00:25:34;;;;;;;4.90;4.40;;;;;;;5.66;56.54;102346.03;5058481;28;20228;-78
2021/03/07 00:27:59;;;;;;;5.27;3.93;;;;;;;5.51;56.57;102332.25;5059151;28;20260;-77
2021/03/07 00:30:25;;;;;;;5.07;3.70;;;;;;;4.76;59.39;102337.44;5058064;28;20514;-78
2021/03/07 00:32:50;;;;;;;4.73;3.90;;;;;;;5.28;56.75;102328.38;5058309;28;20185;-79
2021/03/07 00:35:15;;;;;;;4.57;4.07;;;;;;;5.27;58.63;102332.66;5058592;28;20166;-78
2021/03/07 00:37:41;;;;;;;5.40;4.10;;;;;;;5.10;58.21;102335.94;5058999;28;20531;-78
2021/03/07 00:40:08;;;;;;;7.43;4.27;;;;;;;5.28;57.90;102326.69;5058412;28;20549;-78
2021/03/07 00:42:33;;;;;;;4.87;3.80;;;;;;;5.17;58.47;102326.06;5058284;28;20260;-81
2021/03/07 00:44:59;;;;;;;4.33;3.93;;;;;;;5.38;57.76;102330.66;5059156;28;20511;-78
2021/03/07 00:47:24;;;;;;;6.30;3.93;;;;;;;5.42;57.20;102327.44;5058726;28;20197;-78
2021/03/07 00:49:49;;;;;;;5.60;4.97;;;;;;;5.66;56.24;102320.16;5059186;28;20273;-78
2021/03/07 00:52:15;;;;;;;7.43;4.00;;;;;;;5.12;57.78;102326.59;5058799;28;20215;-77
2021/03/07 00:54:40;;;;;;;4.83;4.30;;;;;;;5.04;57.72;102321.88;5057753;28;20174;-77
2021/03/07 00:57:05;;;;;;;4.23;3.77;;;;;;;5.38;56.26;102321.19;5058423;28;20215;-78
2021/03/07 00:59:31;;;;;;;3.80;3.50;;;;;;;4.86;59.48;102313.06;5058834;28;20424;-76
2021/03/07 01:01:56;;;;;;;4.87;3.80;;;;;;;4.67;58.80;102309.41;5058997;28;20170;-78
2021/03/07 01:04:21;;;;;;;4.10;3.70;;;;;;;5.16;59.02;102301.00;5058598;28;20170;-77
2021/03/07 01:06:47;;;;;;;4.33;3.93;;;;;;;5.26;59.06;102299.81;5058955;28;20445;-79
2021/03/07 01:09:13;;;;;;;7.20;4.10;;;;;;;5.20;57.89;102294.31;5058666;28;20170;-78
2021/03/07 01:11:38;;;;;;;7.83;4.07;;;;;;;5.06;57.66;102291.84;5058028;28;20429;-79
2021/03/07 01:14:05;;;;;;;4.30;3.90;;;;;;;4.86;58.87;102284.66;5058704;28;20400;-78
2021/03/07 01:16:31;;;;;;;5.33;4.10;;;;;;;5.12;58.37;102282.66;5058254;28;20170;-78
2021/03/07 01:18:56;;;;;;;4.40;4.00;;;;;;;4.88;57.97;102277.84;5058506;28;20412;-77
2021/03/07 01:21:21;;;;;;;4.57;3.90;;;;;;;5.37;57.57;102272.88;5058452;28;20581;-78
2021/03/07 01:23:46;;;;;;;4.70;3.70;;;;;;;5.01;57.51;102267.41;5058501;28;20208;-77
2021/03/07 01:26:12;;;;;;;5.30;4.30;;;;;;;5.15;57.44;102259.56;5057616;28;20243;-78
2021/03/07 01:28:37;;;;;;;7.60;4.30;;;;;;;4.97;57.30;102267.16;5058830;28;20181;-78
2021/03/07 01:31:02;;;;;;;8.60;4.17;;;;;;;5.09;57.74;102254.94;5058039;28;20161;-77
2021/03/07 01:33:28;;;;;;;4.50;4.00;;;;;;;4.85;58.33;102254.44;5058562;28;20162;-78
2021/03/07 01:35:53;;;;;;;6.70;4.10;;;;;;;4.95;57.49;102251.59;5058656;28;20173;-78
2021/03/07 01:38:19;;;;;;;6.23;3.63;;;;;;;5.01;57.46;102245.88;5057855;28;20261;-78
2021/03/07 01:40:49;;;;;;;5.97;5.10;;;;;;;5.08;57.44;102247.09;5057746;28;20173;-78
2021/03/07 01:43:17;;;;;;;4.70;3.70;;;;;;;4.98;58.34;102248.25;5060779;28;20176;-78
2021/03/07 01:45:42;;;;;;;5.87;4.70;;;;;;;5.21;59.05;102247.00;5061569;28;20805;-76
2021/03/07 01:48:11;;;;;;;8.47;4.80;;;;;;;5.28;57.66;102246.50;5061377;28;20420;-78
2021/03/07 01:50:39;;;;;;;4.33;3.93;;;;;;;5.14;56.18;102242.25;5062021;28;20473;-76
2021/03/07 01:53:05;;;;;;;6.57;3.67;;;;;;;5.17;57.03;102237.28;5060949;28;20420;-78
2021/03/07 01:55:32;;;;;;;5.17;3.70;;;;;;;5.27;56.21;102236.97;5062691;28;20867;-78
2021/03/07 01:58:01;;;;;;;5.30;4.00;;;;;;;5.16;58.10;102240.66;5061843;28;20158;-77
2021/03/07 02:00:27;;;;;;;4.67;3.83;;;;;;;5.54;57.61;102228.94;5060770;28;20866;-78
2021/03/07 02:02:52;;;;;;;4.33;3.93;;;;;;;5.03;56.76;102219.31;5061701;28;20440;-79
2021/03/07 02:05:19;;;;;;;11.13;3.93;;;;;;;5.55;55.54;102217.81;5066422;28;20169;-77
2021/03/07 02:07:44;;;;;;;4.20;3.80;;;;;;;5.35;56.94;102216.72;5064910;28;20240;-78
2021/03/07 02:10:12;;;;;;;4.17;3.77;;;;;;;5.33;57.65;102208.88;5061752;28;20447;-76
2021/03/07 02:12:38;;;;;;;5.13;4.30;;;;;;;5.47;55.56;102213.91;5061710;28;20496;-77
2021/03/07 02:15:08;;;;;;;4.80;3.77;;;;;;;4.96;56.70;102211.09;5061265;28;20408;-76
2021/03/07 02:17:34;;;;;;;5.23;3.93;;;;;;;5.41;56.01;102201.50;5061320;28;20416;-78
2021/03/07 02:19:59;;;;;;;8.43;4.33;;;;;;;5.47;55.68;102208.75;5062002;28;20403;-79
2021/03/07 02:22:31;;;;;;;5.10;4.63;;;;;;;5.29;55.74;102194.00;5061377;28;20191;-77
2021/03/07 02:24:57;;;;;;;4.53;4.13;;;;;;;5.00;57.83;102197.56;5061167;28;20694;-77
2021/03/07 02:27:22;;;;;;;5.90;3.77;;;;;;;5.21;56.43;102190.09;5060824;28;20535;-78
2021/03/07 02:29:47;;;;;;;6.37;4.10;;;;;;;5.49;54.97;102183.84;5061028;28;20170;-78
2021/03/07 02:32:18;;;;;;;4.57;4.17;;;;;;;5.21;57.16;102182.34;5060649;28;20236;-78
2021/03/07 02:34:55;;;;;;;6.40;3.87;;;;;;;4.69;58.00;102180.31;5060712;28;20615;-77
2021/03/07 02:37:22;;;;;;;4.57;4.17;;;;;;;5.06;56.50;102179.81;5060260;28;20408;-79
2021/03/07 02:39:49;;;;;;;9.13;4.20;;;;;;;5.15;56.39;102171.66;5060696;28;20414;-78
2021/03/07 02:42:17;;;;;;;5.60;4.17;;;;;;;4.98;57.03;102179.38;5060995;28;20695;-79
2021/03/07 02:44:59;;;;;;;5.87;4.70;;;;;;;4.99;58.02;102172.50;5060982;28;20869;-77
2021/03/07 02:47:25;;;;;;;5.30;3.67;;;;;;;5.79;54.90;102165.56;5060604;28;20510;-78
2021/03/07 02:49:51;;;;;;;5.70;4.33;;;;;;;5.65;55.23;102157.97;5059913;28;20416;-78
2021/03/07 02:52:17;;;;;;;5.93;4.33;;;;;;;5.12;57.38;102166.34;5060429;28;20904;-76
2021/03/07 02:54:43;;;;;;;4.50;3.70;;;;;;;5.43;56.54;102160.25;5058997;28;20416;-77
2021/03/07 02:57:09;;;;;;;4.60;3.63;;;;;;;4.87;57.37;102155.53;5060202;28;20162;-79
2021/03/07 02:59:36;;;;;;;4.40;3.90;;;;;;;5.25;57.04;102158.44;5060404;28;20857;-79
2021/03/07 03:02:03;;;;;;;6.30;4.23;;;;;;;5.39;56.50;102148.84;5059824;28;20219;-77
2021/03/07 03:04:33;;;;;;;5.73;4.20;;;;;;;5.37;55.61;102148.75;5060125;28;20725;-78
2021/03/07 03:07:00;;;;;;;7.13;3.83;;;;;;;5.08;57.36;102148.88;5060161;28;20554;-77
2021/03/07 03:09:30;;;;;;;6.20;4.73;;;;;;;5.44;56.19;102149.06;5059759;28;20419;-76
2021/03/07 03:11:57;;;;;;;5.13;3.87;;;;;;;4.92;56.14;102142.84;5059300;28;20461;-77
2021/03/07 03:14:22;;;;;;;4.87;4.33;;;;;;;5.32;56.74;102133.81;5060269;28;20469;-77
2021/03/07 03:16:52;;;;;;;7.00;4.17;;;;;;;5.26;57.49;102131.75;5060442;28;20428;-77
2021/03/07 03:19:19;;;;;;;4.93;3.97;;;;;;;5.20;56.49;102136.63;5059980;28;20166;-77
2021/03/07 03:21:45;;;;;;;6.73;4.23;;;;;;;5.29;55.67;102138.78;5059911;28;20455;-78
2021/03/07 03:24:10;;;;;;;4.10;3.70;;;;;;;5.18;56.09;102135.63;5059718;28;20408;-77
2021/03/07 03:26:36;;;;;;;6.90;3.90;;;;;;;4.94;56.63;102128.31;5058941;28;20229;-78
2021/03/07 03:29:06;;;;;;;5.40;4.10;;;;;;;5.13;56.36;102124.13;5059087;28;20166;-77
2021/03/07 03:31:33;;;;;;;8.37;4.17;;;;;;;5.17;56.00;102119.22;5060133;28;20185;-76
2021/03/07 03:33:59;;;;;;;4.30;3.67;;;;;;;5.13;56.69;102122.47;5059506;28;20415;-78
2021/03/07 03:36:24;;;;;;;4.63;3.77;;;;;;;5.38;55.33;102118.59;5059670;28;20790;-78
2021/03/07 03:38:52;;;;;;;7.70;3.80;;;;;;;5.72;54.52;102120.34;5060007;28;20454;-77
2021/03/07 03:41:20;;;;;;;5.23;4.70;;;;;;;5.24;55.89;102112.69;5058824;28;20166;-78
2021/03/07 03:43:46;;;;;;;4.40;4.00;;;;;;;5.13;55.70;102113.81;5058602;28;20408;-78
2021/03/07 03:46:13;;;;;;;5.87;4.00;;;;;;;5.22;55.15;102119.47;5059142;28;20440;-77
2021/03/07 03:48:40;;;;;;;3.93;3.53;;;;;;;5.29;56.38;102107.75;5058876;28;20439;-78
2021/03/07 03:51:07;;;;;;;6.60;3.87;;;;;;;5.32;55.08;102103.66;5058407;28;20412;-77
2021/03/07 03:53:33;;;;;;;5.20;4.70;;;;;;;5.34;55.04;102101.16;5059814;28;20707;-79
2021/03/07 03:55:59;;;;;;;7.47;4.20;;;;;;;5.40;54.67;102102.34;5058383;28;20413;-78
2021/03/07 03:58:27;;;;;;;6.23;4.37;;;;;;;4.94;56.93;102105.06;5058422;28;20427;-78
2021/03/07 04:00:54;;;;;;;4.17;3.77;;;;;;;5.15;56.24;102097.56;5059728;28;20404;-78
2021/03/07 04:03:20;;;;;;;4.30;4.00;;;;;;;5.46;54.54;102093.16;5058629;28;20431;-79
2021/03/07 04:05:47;;;;;;;4.40;4.00;;;;;;;5.48;54.19;102094.09;5060782;28;20408;-78
2021/03/07 04:08:14;;;;;;;7.90;4.67;;;;;;;5.26;54.95;102089.50;5068398;28;20407;-78
2021/03/07 04:10:41;;;;;;;8.10;4.30;;;;;;;5.54;55.78;102092.72;5061982;28;20445;-78
2021/03/07 04:13:07;;;;;;;6.43;4.27;;;;;;;5.22;55.25;102088.44;5058396;28;20412;-78
2021/03/07 04:15:33;;;;;;;7.30;4.40;;;;;;;4.98;55.53;102083.75;5059518;28;20411;-77
2021/03/07 04:17:58;;;;;;;4.90;4.40;;;;;;;5.38;55.73;102083.28;5058108;28;20412;-77
2021/03/07 04:20:27;;;;;;;4.73;4.33;;;;;;;5.56;55.37;102077.28;5058061;28;20173;-78
2021/03/07 04:22:53;;;;;;;5.17;4.20;;;;;;;5.09;55.73;102081.75;5059915;28;20463;-78
2021/03/07 04:25:18;;;;;;;5.07;4.40;;;;;;;5.42;54.71;102078.28;5060840;28;20462;-76
2021/03/07 04:27:44;;;;;;;5.40;4.57;;;;;;;5.30;55.05;102076.81;5057939;28;20558;-76
2021/03/07 04:30:10;;;;;;;5.70;4.80;;;;;;;5.17;55.71;102075.28;5059250;28;20170;-77
2021/03/07 04:32:35;;;;;;;4.90;4.40;;;;;;;5.30;55.25;102078.53;5059018;28;20190;-78
2021/03/07 04:35:04;;;;;;;5.10;4.60;;;;;;;5.09;56.71;102075.66;5064995;28;20473;-78
2021/03/07 04:37:29;;;;;;;6.17;5.00;;;;;;;5.43;56.00;102068.00;5061509;28;20166;-77
2021/03/07 04:39:55;;;;;;;5.10;4.60;;;;;;;5.35;55.84;102071.91;5059151;28;20420;-77
2021/03/07 04:42:20;;;;;;;7.63;5.10;;;;;;;5.39;54.64;102072.13;5058246;28;20169;-77
2021/03/07 04:44:46;;;;;;;7.53;5.07;;;;;;;5.29;55.74;102075.06;5058964;28;20157;-77
2021/03/07 04:47:12;;;;;;;5.67;4.70;;;;;;;5.21;55.21;102068.59;5058452;28;20227;-76
2021/03/07 04:49:37;;;;;;;6.60;4.80;;;;;;;5.20;55.63;102066.81;5058543;28;20191;-78
2021/03/07 04:52:03;;;;;;;6.30;5.10;;;;;;;4.86;56.67;102055.53;5062376;28;20165;-78
2021/03/07 04:54:28;;;;;;;5.47;5.00;;;;;;;5.10;56.32;102060.28;5066993;28;20169;-78
2021/03/07 04:56:53;;;;;;;5.53;5.00;;;;;;;4.96;56.84;102059.50;5060780;28;20169;-77
2021/03/07 04:59:19;;;;;;;8.30;4.83;;;;;;;4.94;56.47;102052.47;5060134;28;20554;-78
2021/03/07 05:01:44;;;;;;;8.90;4.60;;;;;;;5.32;55.28;102057.09;5058950;28;20170;-77
2021/03/07 05:04:09;;;;;;;5.17;4.37;;;;;;;4.99;56.57;102054.53;5058522;28;20177;-76
2021/03/07 05:06:38;;;;;;;5.80;4.93;;;;;;;5.01;57.04;102060.66;5057999;28;20243;-76
2021/03/07 05:09:05;;;;;;;7.70;5.10;;;;;;;5.38;54.99;102056.53;5057648;28;20201;-77
2021/03/07 05:11:30;;;;;;;5.30;4.80;;;;;;;5.40;57.83;102050.63;5058265;28;20656;-76
2021/03/07 05:13:56;;;;;;;5.67;5.13;;;;;;;5.38;56.16;102053.94;5058691;28;20405;-78
2021/03/07 05:16:21;;;;;;;5.80;4.23;;;;;;;5.52;57.33;102044.31;5058559;28;20626;-79
2021/03/07 05:18:47;;;;;;;5.77;5.10;;;;;;;5.00;56.91;102050.22;5061778;28;20220;-78
2021/03/07 05:21:12;;;;;;;5.50;5.00;;;;;;;4.89;58.53;102053.13;5062437;28;20181;-78
2021/03/07 05:23:38;;;;;;;6.70;5.40;;;;;;;5.09;56.66;102049.81;5062517;28;20467;-76
2021/03/07 05:26:04;;;;;;;8.33;4.90;;;;;;;4.96;58.13;102045.72;5061980;28;20237;-78
2021/03/07 05:28:29;;;;;;;5.40;4.90;;;;;;;5.11;57.23;102041.34;5062760;28;20230;-78
2021/03/07 05:30:55;;;;;;;5.23;4.73;;;;;;;5.16;57.64;102039.03;5061134;28;20459;-78
2021/03/07 05:33:20;;;;;;;6.10;4.90;;;;;;;5.12;57.40;102035.38;5062151;28;20170;-77
2021/03/07 05:35:46;;;;;;;5.67;5.07;;;;;;;5.59;55.34;102025.72;5062277;28;20169;-80
2021/03/07 05:38:11;;;;;;;6.40;5.20;;;;;;;5.11;57.27;102035.28;5062265;28;20207;-78
2021/03/07 05:40:36;;;;;;;5.37;4.87;;;;;;;5.19;57.02;102023.66;5044556;28;20166;-78
2021/03/07 05:43:04;;;;;;;5.43;4.73;;;;;;;5.03;57.45;102027.13;5063242;28;20457;-80
2021/03/07 05:45:29;;;;;;;5.10;4.60;;;;;;;5.08;57.93;102022.22;5062191;28;20547;-80
2021/03/07 05:47:55;;;;;;;7.77;5.13;;;;;;;5.69;55.92;102020.19;5061907;28;20521;-78
2021/03/07 05:50:21;;;;;;;5.37;4.87;;;;;;;5.53;56.09;102022.81;5062479;28;20239;-79
2021/03/07 05:52:47;;;;;;;7.27;6.30;;;;;;;5.05;57.63;102022.94;5061154;28;20180;-80
2021/03/07 05:55:12;;;;;;;11.60;7.67;;;;;;;5.10;57.46;102024.09;5061408;28;20480;-78
2021/03/07 05:57:38;;;;;;;7.67;5.70;;;;;;;4.99;58.85;102017.44;5061972;28;20400;-78
2021/03/07 06:00:04;;;;;;;5.90;5.30;;;;;;;5.25;57.59;102011.06;5060770;28;20536;-78
2021/03/07 06:02:29;;;;;;;12.40;8.50;;;;;;;5.07;57.26;102010.97;5061385;28;20204;-78
2021/03/07 06:04:55;;;;;;;8.03;5.70;;;;;;;4.99;57.08;102009.69;5061895;28;20415;-77
2021/03/07 06:07:20;;;;;;;7.80;5.00;;;;;;;5.49;56.32;102014.00;5061569;28;20258;-78
2021/03/07 06:09:46;;;;;;;10.80;6.37;;;;;;;5.67;55.57;102000.22;5066887;28;20184;-76
2021/03/07 06:12:16;;;;;;;8.10;5.80;;;;;;;5.20;57.41;102004.75;5066082;28;20161;-79
2021/03/07 06:14:43;;;;;;;6.40;5.20;;;;;;;4.97;57.76;102008.72;5063150;28;20416;-76
2021/03/07 06:17:10;;;;;;;5.70;5.10;;;;;;;5.48;56.90;102011.34;5062063;28;20504;-78
2021/03/07 06:19:57;;;;;;;8.13;6.70;;;;;;;5.63;55.82;102006.03;5062493;28;20483;-77
2021/03/07 06:22:23;;;;;;;7.50;4.90;;;;;;;5.30;58.34;102006.13;5061127;28;20515;-77
2021/03/07 06:24:48;;;;;;;7.53;5.23;;;;;;;5.63;56.42;102003.47;5061014;28;20428;-78
2021/03/07 06:27:19;;;;;;;5.80;5.17;;;;;;;5.29;56.58;102007.81;5061249;28;20519;-78
2021/03/07 06:29:55;;;;;;;6.43;4.97;;;;;;;5.42;57.54;101996.41;5060080;28;20202;-78
2021/03/07 06:32:20;;;;;;;5.33;4.80;;;;;;;5.63;55.50;101999.19;5060839;28;20428;-78
2021/03/07 06:34:46;;;;;;;6.27;5.30;;;;;;;5.78;54.75;101992.97;5060408;28;20837;-77
2021/03/07 06:37:12;;;;;;;6.13;5.20;;;;;;;5.46;55.80;102000.91;5061327;28;20158;-78
2021/03/07 06:39:37;;;;;;;6.40;5.37;;;;;;;5.28;56.37;102002.59;5060770;28;20448;-78
2021/03/07 06:42:04;;;;;;;7.90;5.67;;;;;;;6.22;53.87;101996.88;5060804;28;20177;-78
2021/03/07 06:44:30;;;;;;;8.27;5.83;;;;;;;6.19;54.16;102001.94;5064209;28;20177;-77
2021/03/07 06:47:06;;;;;;;6.80;5.30;;;;;;;6.16;54.00;102004.38;5060873;28;20868;-77
2021/03/07 06:49:31;;;;;;;8.00;5.20;;;;;;;6.07;54.29;101999.63;5060706;28;20184;-77
2021/03/07 06:52:17;;;;;;;7.67;5.10;;;;;;;5.79;54.98;102010.28;5060258;28;20416;-76
2021/03/07 06:54:45;;;;;;;5.97;5.37;;;;;;;5.94;54.69;102012.75;5061602;28;20169;-78
2021/03/07 06:57:11;;;;;;;9.20;5.90;;;;;;;5.81;55.36;102011.28;5059769;28;20473;-77
2021/03/07 06:59:36;;;;;;;9.07;6.30;;;;;;;5.66;55.87;102011.41;5060498;28;20813;-78
2021/03/07 07:02:10;;;;;;;7.87;5.73;;;;;;;6.06;54.80;102006.53;5060574;28;20558;-78
2021/03/07 07:04:41;;;;;;;6.80;5.50;;;;;;;5.61;56.60;102008.56;5059411;28;20180;-78
2021/03/07 07:07:09;;;;;;;8.00;5.87;;;;;;;5.89;55.82;102008.25;5059483;28;20873;-78
2021/03/07 07:09:34;;;;;;;7.47;5.70;;;;;;;6.34;54.84;102005.22;5059894;28;20498;-78
2021/03/07 07:12:01;;;;;;;8.33;5.50;;;;;;;5.70;55.19;102003.84;5059773;28;20734;-78
2021/03/07 07:14:38;;;;;;;6.97;6.17;;;;;;;6.35;54.58;101999.25;5060463;28;20162;-78
2021/03/07 07:17:05;;;;;;;7.50;6.80;;;;;;;6.22;55.23;102000.38;5059977;28;20818;-78
2021/03/07 07:19:30;;;;;;;8.77;6.10;;;;;;;6.50;54.26;101990.44;5060045;28;20841;-78
2021/03/07 07:21:55;;;;;;;7.17;5.87;;;;;;;6.23;54.67;101986.59;5059598;28;20428;-78
2021/03/07 07:24:22;;;;;;;12.63;6.23;;;;;;;6.13;55.42;101989.59;5059618;28;20177;-78
2021/03/07 07:26:47;;;;;;;8.30;5.80;;;;;;;5.32;55.88;101994.19;5059493;28;20255;-77
2021/03/07 07:29:13;;;;;;;9.63;5.30;;;;;;;6.10;56.14;101988.53;5059644;28;20428;-80
2021/03/07 07:31:45;;;;;;;6.30;5.10;;;;;;;5.87;53.88;101989.19;5059499;28;20507;-76
2021/03/07 07:34:15;;;;;;;8.50;5.47;;;;;;;6.18;53.58;101985.53;5042043;28;20173;-75
2021/03/07 07:36:46;;;;;;;6.90;5.80;;;;;;;6.26;52.52;101982.41;5058657;28;20435;-77
2021/03/07 07:39:12;;;;;;;5.13;4.63;;;;;;;5.85;53.61;101977.84;5058760;28;20404;-78
2021/03/07 07:41:39;;;;;;;6.53;5.20;;;;;;;6.43;52.14;101978.00;5058519;28;20458;-77
2021/03/07 07:44:07;;;;;;;6.23;5.63;;;;;;;6.05;54.02;101976.25;5059888;28;20404;-77
2021/03/07 07:46:33;;;;;;;6.90;5.27;;;;;;;5.97;53.24;101979.28;5059353;28;20456;-77
2021/03/07 07:49:00;;;;;;;6.43;4.67;;;;;;;6.09;52.95;101976.41;5058684;28;20419;-78
2021/03/07 07:51:39;;;;;;;8.73;4.83;;;;;;;5.71;52.68;101972.00;5059666;28;20550;-79
2021/03/07 07:54:06;;;;;;;8.60;4.50;;;;;;;6.39;50.81;101975.25;5058845;28;20407;-77
2021/03/07 07:56:32;;;;;;;8.53;5.43;;;;;;;6.06;51.95;101971.97;5072465;28;20765;-77
2021/03/07 07:58:58;;;;;;;7.63;4.67;;;;;;;5.85;52.40;101975.25;5079043;28;20489;-77
2021/03/07 08:01:56;;;;;;;8.63;4.40;;;;;;;6.03;50.54;101975.28;5078297;28;20431;-79
2021/03/07 08:04:27;;;;;;;5.90;4.93;;;;;;;5.65;52.86;101971.69;5078930;28;20181;-78
2021/03/07 08:06:53;;;;;;;6.23;5.03;;;;;;;6.28;51.19;101960.94;5078694;28;20459;-78
2021/03/07 08:09:45;;;;;;;7.70;4.43;;;;;;;6.49;53.09;101960.16;5078835;28;20413;-76
2021/03/07 08:12:41;;;;;;;6.43;4.57;;;;;;;6.10;53.07;101968.69;5083717;28;20433;-78
2021/03/07 08:15:31;;;;;;;6.90;5.20;;;;;;;6.67;51.19;101962.69;5081276;28;20784;-77
2021/03/07 08:18:03;;;;;;;6.43;4.30;;;;;;;6.24;50.14;101962.47;5079442;28;20464;-79
2021/03/07 08:20:38;;;;;;;9.30;4.60;;;;;;;6.57;49.60;101954.50;5079118;28;20429;-78
2021/03/07 08:23:22;;;;;;;5.77;4.07;;;;;;;6.80;48.95;101953.78;5078666;28;20399;-81
2021/03/07 08:25:54;;;;;;;8.47;4.27;;;;;;;6.02;51.77;101965.78;5077618;28;20459;-78
2021/03/07 08:28:25;;;;;;;4.50;4.10;;;;;;;6.65;49.29;101960.03;5078795;28;20419;-80
2021/03/07 08:30:51;;;;;;;6.13;3.93;;;;;;;6.31;49.49;101955.88;5078524;28;20427;-78
2021/03/07 08:33:33;;;;;;;6.50;4.40;;;;;;;5.76;52.35;101955.81;5078565;28;20468;-77
2021/03/07 08:36:12;;;;;;;6.67;4.90;;;;;;;6.12;50.21;101945.50;5078547;28;20804;-77
2021/03/07 08:38:53;;;;;;;6.23;4.10;;;;;;;6.72;50.21;101954.31;5078618;28;20850;-77
2021/03/07 08:41:38;;;;;;;7.70;4.43;;;;;;;6.29;50.81;101948.88;5078230;28;20906;-76
2021/03/07 08:44:10;;;;;;;6.00;4.70;;;;;;;5.81;51.66;101956.94;5077963;28;20437;-76
2021/03/07 08:46:38;;;;;;;5.50;4.70;;;;;;;5.94;52.83;101942.88;5078498;28;20451;-78
2021/03/07 08:49:09;;;;;;;7.17;4.93;;;;;;;6.12;51.81;101940.31;5078690;28;20685;-80
2021/03/07 08:51:36;;;;;;;6.40;4.73;;;;;;;6.02;51.67;101939.88;5077102;28;20756;-77
2021/03/07 08:54:08;;;;;;;5.47;4.70;;;;;;;5.95;51.46;101947.25;5078733;28;20422;-79
2021/03/07 08:56:37;;;;;;;7.73;4.50;;;;;;;6.19;53.13;101942.38;5078520;28;20464;-78
2021/03/07 08:59:03;;;;;;;5.47;4.80;;;;;;;6.55;51.23;101943.19;5078526;28;20430;-78
2021/03/07 09:01:29;;;;;;;7.43;4.83;;;;;;;6.21;52.32;101936.47;5078358;28;20437;-76
2021/03/07 09:03:59;;;;;;;6.33;4.40;;;;;;;6.20;52.41;101936.38;5077707;28;20498;-78
2021/03/07 09:06:30;;;;;;;11.93;5.50;;;;;;;6.35;51.85;101937.09;5077380;28;20569;-79
2021/03/07 09:09:04;;;;;;;6.20;4.60;;;;;;;5.43;53.60;101927.47;5077640;28;20442;-80
2021/03/07 09:11:30;;;;;;;5.03;4.53;;;;;;;6.04;53.43;101922.69;5078146;28;20406;-78
2021/03/07 09:13:58;;;;;;;5.40;4.50;;;;;;;6.04;53.90;101920.13;5078303;28;20459;-77
2021/03/07 09:16:35;;;;;;;8.20;4.53;;;;;;;6.17;52.19;101918.09;5077480;28;20176;-79
2021/03/07 09:19:01;;;;;;;4.60;4.03;;;;;;;6.52;51.25;101916.25;5078597;28;20407;-78
2021/03/07 09:21:26;;;;;;;8.40;4.90;;;;;;;7.81;48.33;101899.22;5078082;28;20426;-78
2021/03/07 09:23:51;;;;;;;5.90;4.40;;;;;;;7.61;47.87;101906.19;5078503;28;20412;-78
2021/03/07 09:26:18;;;;;;;5.33;4.27;;;;;;;7.24;48.80;101900.38;5078044;28;20307;-78
2021/03/07 09:28:54;;;;;;;5.23;4.37;;;;;;;7.78;47.03;101899.06;5077220;28;20257;-80
2021/03/07 09:31:20;;;;;;;8.80;4.90;;;;;;;7.86;47.48;101895.06;5077158;28;20859;-79
2021/03/07 09:33:48;;;;;;;8.37;4.60;;;;;;;7.65;47.13;101892.50;5078896;28;20408;-79
2021/03/07 09:36:13;;;;;;;6.13;4.33;;;;;;;8.03;46.40;101890.53;5079848;28;20793;-79
2021/03/07 09:38:50;;;;;;;5.57;4.30;;;;;;;8.41;45.27;101891.97;5078990;28;20430;-80
2021/03/07 09:41:38;;;;;;;6.53;4.30;;;;;;;7.96;45.71;101894.59;5078889;28;20180;-80
2021/03/07 09:44:10;;;;;;;8.53;4.27;;;;;;;7.58;46.92;101894.84;5078493;28;20442;-78
2021/03/07 09:46:36;;;;;;;4.50;4.10;;;;;;;8.43;44.58;101895.53;5077788;28;20470;-78
2021/03/07 09:49:04;;;;;;;8.13;4.43;;;;;;;8.59;44.19;101894.41;5078025;28;20411;-78
2021/03/07 09:51:32;;;;;;;7.23;4.60;;;;;;;8.53;44.26;101888.09;5077235;28;20566;-78
2021/03/07 09:53:58;;;;;;;13.77;9.10;;;;;;;8.44;44.76;101888.59;5077429;28;20404;-77
2021/03/07 09:56:25;;;;;;;9.87;7.60;;;;;;;8.85;44.03;101885.75;5077262;28;20403;-77
2021/03/07 09:58:51;;;;;;;7.37;5.20;;;;;;;8.72;43.91;101887.06;5077767;28;20422;-78
2021/03/07 10:01:16;;;;;;;13.53;5.47;;;;;;;8.93;43.48;101884.34;5077759;28;20407;-78
2021/03/07 10:03:42;;;;;;;6.90;4.43;;;;;;;7.96;45.90;101894.59;5077651;28;20161;-77
2021/03/07 10:06:15;;;;;;;6.10;4.50;;;;;;;8.40;44.48;101889.31;5080276;28;20189;-77
2021/03/07 10:08:41;;;;;;;9.80;4.57;;;;;;;8.38;44.93;101886.66;5081347;28;20164;-76
2021/03/07 10:11:12;;;;;;;7.17;4.67;;;;;;;8.07;48.78;101890.69;5080891;28;20415;-78
2021/03/07 10:13:39;;;;;;;12.73;4.77;;;;;;;8.15;46.04;101885.81;5082506;28;20464;-77
2021/03/07 10:16:06;;;;;;;8.07;4.57;;;;;;;8.59;45.31;101883.09;5083254;28;20542;-78
2021/03/07 10:18:31;;;;;;;6.83;4.70;;;;;;;7.96;46.65;101885.94;5082035;28;20411;-77
2021/03/07 10:20:57;;;;;;;6.37;5.00;;;;;;;9.66;43.74;101869.41;5080491;28;20416;-76
2021/03/07 10:23:31;;;;;;;7.00;5.13;;;;;;;8.30;45.85;101879.44;5081211;28;20171;-78
2021/03/07 10:25:59;;;;;;;9.00;6.40;;;;;;;8.89;45.71;101872.03;5080430;28;20467;-79
2021/03/07 10:28:26;;;;;;;8.93;5.37;;;;;;;7.74;48.55;101883.38;5081006;28;20418;-78
2021/03/07 10:30:52;;;;;;;5.83;5.23;;;;;;;8.79;46.19;101876.03;5080474;28;20441;-79
2021/03/07 10:33:29;;;;;;;6.10;5.50;;;;;;;7.99;48.13;101883.44;5079893;28;20683;-79
2021/03/07 10:36:00;;;;;;;7.13;5.87;;;;;;;7.66;49.92;101889.06;5079890;28;20526;-79
2021/03/07 10:38:26;;;;;;;9.30;6.03;;;;;;;8.12;48.91;101879.59;5080394;28;20407;-78
2021/03/07 10:40:51;;;;;;;7.00;5.90;;;;;;;8.13;48.77;101871.84;5079822;28;20486;-78
2021/03/07 10:43:17;;;;;;;11.17;5.13;;;;;;;8.37;47.93;101871.03;5079428;28;20169;-76
2021/03/07 10:45:42;;;;;;;6.97;6.20;;;;;;;8.45;48.07;101864.44;5080201;28;20264;-77
2021/03/07 10:48:12;;;;;;;9.80;5.93;;;;;;;7.93;49.76;101864.22;5079628;28;20227;-78
2021/03/07 10:50:44;;;;;;;10.47;6.97;;;;;;;7.72;50.03;101871.16;5079911;28;20439;-77
2021/03/07 10:53:09;;;;;;;6.67;5.97;;;;;;;7.85;49.96;101855.25;5079616;28;20411;-78
2021/03/07 10:55:35;;;;;;;7.00;6.23;;;;;;;8.43;48.40;101859.13;5080223;28;20437;-78
2021/03/07 10:58:00;;;;;;;7.43;6.53;;;;;;;7.53;50.04;101860.03;5080057;28;20551;-76
2021/03/07 11:00:26;;;;;;;7.43;6.23;;;;;;;7.87;49.66;101856.16;5079554;28;20259;-77
2021/03/07 11:02:55;;;;;;;8.53;6.53;;;;;;;8.25;49.12;101856.75;5085292;28;20169;-75
2021/03/07 11:05:20;;;;;;;9.57;6.27;;;;;;;8.82;47.46;101859.66;5088178;28;20181;-76
2021/03/07 11:07:46;;;;;;;8.63;5.80;;;;;;;8.47;48.14;101854.09;5092113;28;20492;-78
2021/03/07 11:10:15;;;;;;;7.10;6.07;;;;;;;8.11;47.97;101857.06;5093197;28;20191;-76
2021/03/07 11:12:40;;;;;;;9.30;6.00;;;;;;;8.10;48.23;101856.16;5084061;28;20422;-77
2021/03/07 11:15:09;;;;;;;6.87;6.00;;;;;;;7.98;48.42;101851.38;5081236;28;20403;-75
2021/03/07 11:17:34;;;;;;;6.43;5.43;;;;;;;7.87;49.07;101842.31;5081020;28;20180;-77
2021/03/07 11:20:00;;;;;;;9.97;5.87;;;;;;;7.87;48.85;101840.59;5080838;28;20423;-77
2021/03/07 11:22:25;;;;;;;11.83;5.60;;;;;;;8.19;48.07;101842.66;5080585;28;20599;-78
2021/03/07 11:24:51;;;;;;;6.97;5.80;;;;;;;7.96;48.30;101842.66;5081180;28;20195;-76
2021/03/07 11:27:17;;;;;;;10.03;6.80;;;;;;;8.21;47.81;101836.69;5090316;28;20209;-79
2021/03/07 11:29:42;;;;;;;8.70;6.20;;;;;;;8.06;48.20;101837.00;5091818;28;20184;-78
2021/03/07 11:32:08;;;;;;;7.23;6.00;;;;;;;7.85;48.19;101836.19;5091233;28;20201;-78
2021/03/07 11:34:35;;;;;;;7.47;5.80;;;;;;;7.98;47.82;101827.16;5082352;28;20239;-79
2021/03/07 11:37:01;;;;;;;7.30;5.67;;;;;;;8.14;46.84;101833.81;5081961;28;20411;-77